Woodford, Wisconsin
Current Conditions -  °F | °C
As of 8:15 AM on Monday 20 Oct 2014 (Local Time) from KEFT Reporting Station
Clear Clear  
Wind Chill: 43°   Ceiling: Unl
Heat Index: 48°   Visibility: 10mi
Dew Point: 45°   Wind: 13mph
Humidity: 87%   Direction: 320°NW
Pressure: 29.86"   Gusts: 20mph
Location:  42.65°N, 89.86°W
Report Text: KEFT 201315Z AUTO 32011G17KT 10SM CLR 09/07 A2986 RMK AO2
Loading
Personal Weather Stations






























Interactive Weather Map
Tropical Storm Tracking
New forecast layout! Learn more

10-Day Weather Forecast

Advertisements
Track Severe Weather on mobile